Eston, Canada
Current Conditions -  °F | °C
As of 4:00 AM on Tuesday 21 Oct 2014 (Local Time) from CYKY Reporting Station
Few Clouds Few Clouds  
Wind Chill: 37°   Ceiling: Unl
Heat Index: 43°   Visibility: 15mi
Dew Point: 36°   Wind: 10mph
Humidity: 76%   Direction: 160°SSE
Pressure: 29.61"   Gusts: NA
Location:  51.15°N, 108.75°W
Report Text: CYKY 211000Z 16009KT 15SM FEW240 06/02 A2961 RMK CI1 SLP029
Loading
Personal Weather Stations






























Interactive Weather Map
Tropical Storm Tracking
New forecast layout! Learn more

10-Day Weather Forecast

Advertisements
Track Severe Weather on mobile